createdAt,value
2019-02-14T00:02:21.342Z,7.10
2019-02-14T00:04:47.646Z,7.10
2019-02-14T00:07:14.221Z,7.10
2019-02-14T00:09:40.839Z,7.20
2019-02-14T00:12:07.429Z,7.20
2019-02-14T00:14:33.824Z,7.00
2019-02-14T00:17:00.414Z,7.10
2019-02-14T00:19:26.754Z,7.10
2019-02-14T00:21:53.297Z,7.10
2019-02-14T00:24:19.632Z,7.10
2019-02-14T00:26:46.202Z,7.00
2019-02-14T00:29:12.823Z,7.10
2019-02-14T00:31:40.222Z,7.10
2019-02-14T00:34:06.833Z,7.00
2019-02-14T00:36:33.133Z,6.90
2019-02-14T00:38:59.453Z,7.00
2019-02-14T00:41:26.002Z,6.90
2019-02-14T00:43:52.624Z,6.90
2019-02-14T00:46:18.925Z,6.90
2019-02-14T00:48:45.256Z,6.90
2019-02-14T00:51:11.585Z,7.10
2019-02-14T00:53:37.957Z,7.10
2019-02-14T00:56:04.328Z,7.20
2019-02-14T00:58:30.920Z,7.10
2019-02-14T01:00:57.289Z,7.10
2019-02-14T01:03:23.582Z,7.20
2019-02-14T01:05:50.234Z,7.30
2019-02-14T01:08:16.521Z,7.30
2019-02-14T01:10:43.118Z,7.40
2019-02-14T01:13:09.697Z,7.30
2019-02-14T01:15:36.411Z,7.20
2019-02-14T01:18:03.037Z,7.10
2019-02-14T01:20:29.467Z,7.10
2019-02-14T01:22:56.055Z,7.20
2019-02-14T01:25:22.443Z,7.10
2019-02-14T01:27:48.765Z,7.10
2019-02-14T01:30:15.098Z,7.10
2019-02-14T01:32:41.380Z,7.20
2019-02-14T01:35:08.359Z,7.20
2019-02-14T01:37:34.937Z,7.10
2019-02-14T01:40:01.260Z,7.10
2019-02-14T01:42:29.509Z,7.20
2019-02-14T01:44:55.831Z,7.00
2019-02-14T01:47:22.378Z,6.90
2019-02-14T01:49:48.730Z,6.90
2019-02-14T01:52:15.127Z,6.90
2019-02-14T01:54:41.725Z,7.00
2019-02-14T01:57:08.058Z,7.00
2019-02-14T01:59:34.397Z,7.00
2019-02-14T02:02:01.606Z,6.90
2019-02-14T02:04:27.926Z,6.80
2019-02-14T02:06:54.531Z,6.80
2019-02-14T02:09:21.299Z,6.80
2019-02-14T02:11:47.861Z,6.80
2019-02-14T02:14:14.444Z,6.80
2019-02-14T02:16:41.008Z,6.80
2019-02-14T02:19:07.366Z,6.80
2019-02-14T02:21:34.144Z,6.80
2019-02-14T02:24:00.791Z,6.80
2019-02-14T02:26:27.123Z,6.70
2019-02-14T02:28:54.453Z,6.70
2019-02-14T02:31:20.867Z,6.70
2019-02-14T02:33:47.180Z,6.70
2019-02-14T02:36:13.494Z,6.60
2019-02-14T02:38:39.834Z,6.70
2019-02-14T02:41:06.138Z,6.60
2019-02-14T02:43:32.466Z,6.50
2019-02-14T02:45:58.771Z,6.60
2019-02-14T02:48:25.119Z,6.50
2019-02-14T02:50:51.419Z,6.50
2019-02-14T02:53:17.775Z,6.50
2019-02-14T02:55:44.111Z,6.50
2019-02-14T02:58:10.671Z,6.50
2019-02-14T03:00:37.014Z,6.60
2019-02-14T03:03:03.307Z,6.50
2019-02-14T03:05:29.648Z,6.60
2019-02-14T03:07:55.998Z,6.60
2019-02-14T03:10:22.284Z,6.60
2019-02-14T03:12:48.824Z,6.50
2019-02-14T03:15:15.495Z,6.50
2019-02-14T03:17:41.832Z,6.50
2019-02-14T03:20:12.157Z,6.50
2019-02-14T03:22:38.691Z,6.50
2019-02-14T03:25:16.570Z,6.50
2019-02-14T03:27:43.183Z,6.50
2019-02-14T03:30:14.236Z,6.40
2019-02-14T03:32:40.560Z,6.30
2019-02-14T03:35:07.587Z,6.20
2019-02-14T03:37:36.157Z,6.20
2019-02-14T03:40:06.390Z,6.00
2019-02-14T03:42:33.026Z,5.90
2019-02-14T03:44:59.620Z,5.90
2019-02-14T03:47:26.317Z,5.90
2019-02-14T03:49:52.643Z,5.80
2019-02-14T03:52:19.255Z,5.70
2019-02-14T03:54:45.867Z,5.70
2019-02-14T03:57:12.192Z,5.70
2019-02-14T03:59:38.758Z,5.70
2019-02-14T04:02:05.350Z,5.70
2019-02-14T04:04:31.712Z,5.60
2019-02-14T04:06:58.036Z,5.70
2019-02-14T04:09:24.340Z,5.70
2019-02-14T04:11:50.755Z,5.60
2019-02-14T04:14:17.319Z,5.60
2019-02-14T04:16:43.735Z,5.60
2019-02-14T04:19:10.303Z,5.60
2019-02-14T04:21:37.643Z,5.60
2019-02-14T04:24:04.198Z,5.60
2019-02-14T04:26:30.554Z,5.50
2019-02-14T04:28:56.870Z,5.50
2019-02-14T04:31:23.545Z,5.50
2019-02-14T04:33:50.883Z,5.40
2019-02-14T04:36:17.466Z,5.40
2019-02-14T04:38:43.798Z,5.40
2019-02-14T04:41:10.106Z,5.40
2019-02-14T04:43:36.696Z,5.40
2019-02-14T04:46:03.238Z,5.40
2019-02-14T04:48:33.235Z,5.40
2019-02-14T04:50:59.830Z,5.40
2019-02-14T04:53:26.148Z,5.50
2019-02-14T04:55:54.480Z,5.60
2019-02-14T04:58:21.245Z,5.50
2019-02-14T05:00:47.607Z,5.60
2019-02-14T05:03:14.152Z,5.60
2019-02-14T05:05:40.717Z,5.60
2019-02-14T05:08:07.056Z,5.60
2019-02-14T05:10:33.660Z,5.50
2019-02-14T05:12:59.987Z,5.50
2019-02-14T05:15:26.314Z,5.50
2019-02-14T05:17:52.657Z,5.50
2019-02-14T05:20:18.970Z,5.50
2019-02-14T05:22:45.582Z,5.50
2019-02-14T05:25:11.879Z,5.50
2019-02-14T05:27:38.575Z,5.50
2019-02-14T05:30:16.519Z,5.60
2019-02-14T05:32:42.938Z,5.60
2019-02-14T05:35:09.533Z,5.60
2019-02-14T05:37:35.911Z,5.60
2019-02-14T05:40:04.737Z,5.60
2019-02-14T05:42:31.081Z,5.50
2019-02-14T05:44:57.420Z,5.50
2019-02-14T05:47:23.749Z,5.40
2019-02-14T05:49:50.401Z,5.40
2019-02-14T05:52:17.344Z,5.50
2019-02-14T05:54:43.630Z,5.50
2019-02-14T05:57:09.971Z,5.50
2019-02-14T05:59:36.319Z,5.40
2019-02-14T06:02:02.936Z,5.30
2019-02-14T06:04:29.572Z,5.30
2019-02-14T06:07:01.077Z,5.30
2019-02-14T06:09:24.217Z,5.40
2019-02-14T06:11:50.516Z,5.40
2019-02-14T06:14:17.545Z,5.40
2019-02-14T06:16:43.909Z,5.40
2019-02-14T06:19:10.597Z,5.40
2019-02-14T06:21:36.942Z,5.40
2019-02-14T06:24:03.551Z,5.50
2019-02-14T06:26:30.020Z,5.50
2019-02-14T06:28:56.660Z,5.50
2019-02-14T06:31:23.003Z,5.40
2019-02-14T06:33:51.779Z,5.40
2019-02-14T06:36:18.680Z,5.30
2019-02-14T06:38:45.265Z,5.30
2019-02-14T06:41:11.874Z,5.30
2019-02-14T06:43:38.253Z,5.30
2019-02-14T06:46:04.836Z,5.30
2019-02-14T06:48:31.131Z,5.30
2019-02-14T06:50:57.523Z,5.40
2019-02-14T06:53:24.140Z,5.40
2019-02-14T06:55:50.434Z,5.40
2019-02-14T06:58:17.050Z,5.40
2019-02-14T07:00:43.443Z,5.30
2019-02-14T07:03:10.111Z,5.40
2019-02-14T07:05:36.548Z,5.40
2019-02-14T07:08:02.893Z,5.50
2019-02-14T07:10:29.524Z,5.50
2019-02-14T07:12:56.931Z,5.60
2019-02-14T07:15:23.316Z,5.70
2019-02-14T07:17:49.911Z,5.60
2019-02-14T07:20:16.483Z,5.70
2019-02-14T07:22:51.227Z,5.70
2019-02-14T07:25:19.949Z,5.90
2019-02-14T07:27:46.522Z,5.70
2019-02-14T07:30:22.110Z,5.60
2019-02-14T07:32:48.585Z,5.70
2019-02-14T07:35:14.899Z,5.70
2019-02-14T07:37:41.301Z,5.60
2019-02-14T07:40:13.468Z,5.60
2019-02-14T07:42:40.061Z,5.60
2019-02-14T07:45:12.739Z,5.70
2019-02-14T07:47:39.119Z,5.70
2019-02-14T07:50:09.181Z,5.80
2019-02-14T07:52:35.912Z,5.70
2019-02-14T07:55:03.394Z,5.90
2019-02-14T07:57:29.930Z,6.10
2019-02-14T07:59:56.586Z,6.20
2019-02-14T08:02:23.438Z,6.30
2019-02-14T08:04:49.884Z,6.40
2019-02-14T08:07:16.504Z,6.50
2019-02-14T08:09:42.840Z,6.50
2019-02-14T08:12:09.882Z,6.50
2019-02-14T08:14:36.535Z,6.40
2019-02-14T08:17:03.139Z,6.60
2019-02-14T08:19:29.801Z,6.70
2019-02-14T08:21:56.164Z,6.90
2019-02-14T08:24:22.498Z,6.90
2019-02-14T08:26:49.035Z,6.90
2019-02-14T08:29:15.427Z,6.90
2019-02-14T08:31:41.813Z,7.00
2019-02-14T08:34:08.482Z,7.00
2019-02-14T08:36:34.985Z,6.80
2019-02-14T08:39:01.290Z,7.00
2019-02-14T08:41:29.550Z,6.90
2019-02-14T08:43:55.909Z,7.00
2019-02-14T08:46:22.276Z,7.20
2019-02-14T08:48:49.118Z,7.10
2019-02-14T08:51:15.437Z,7.40
2019-02-14T08:53:41.881Z,7.30
2019-02-14T08:56:08.203Z,7.20
2019-02-14T08:58:34.522Z,7.20
2019-02-14T09:01:01.221Z,7.40
2019-02-14T09:03:27.530Z,7.60
2019-02-14T09:05:53.862Z,7.80
2019-02-14T09:08:20.459Z,7.80
2019-02-14T09:10:47.579Z,7.60
2019-02-14T09:13:17.319Z,7.30
2019-02-14T09:15:42.466Z,7.20
2019-02-14T09:18:08.799Z,7.10
2019-02-14T09:20:35.419Z,7.30
2019-02-14T09:23:01.849Z,7.30
2019-02-14T09:25:28.181Z,7.40
2019-02-14T09:27:54.503Z,7.10
2019-02-14T09:30:20.824Z,7.30
2019-02-14T09:32:47.154Z,7.40
2019-02-14T09:35:13.510Z,7.60
2019-02-14T09:37:39.846Z,7.80
2019-02-14T09:40:12.197Z,7.90
2019-02-14T09:42:39.423Z,8.10
2019-02-14T09:45:11.224Z,8.10
2019-02-14T09:47:37.831Z,8.20
2019-02-14T09:50:07.967Z,8.10
2019-02-14T09:52:34.596Z,8.00
2019-02-14T09:55:00.948Z,8.10
2019-02-14T09:57:27.351Z,8.00
2019-02-14T09:59:54.718Z,7.90
2019-02-14T10:02:21.847Z,7.80
2019-02-14T10:04:48.175Z,7.80
2019-02-14T10:07:14.555Z,7.70
2019-02-14T10:09:41.042Z,8.00
2019-02-14T10:12:07.444Z,8.10
2019-02-14T10:14:34.045Z,8.00
2019-02-14T10:17:00.642Z,8.10
2019-02-14T10:19:28.644Z,8.10
2019-02-14T10:21:55.225Z,8.20
2019-02-14T10:24:21.918Z,8.30
2019-02-14T10:26:48.324Z,8.20
2019-02-14T10:29:14.792Z,8.10
2019-02-14T10:31:41.191Z,8.10
2019-02-14T10:34:07.867Z,8.10
2019-02-14T10:36:34.438Z,8.20
2019-02-14T10:39:00.886Z,8.20
2019-02-14T10:41:29.216Z,8.20
2019-02-14T10:43:55.713Z,8.20
2019-02-14T10:46:22.042Z,8.20
2019-02-14T10:48:48.626Z,8.30
2019-02-14T10:51:15.044Z,8.40
2019-02-14T10:53:41.748Z,8.60
2019-02-14T10:56:08.311Z,8.50
2019-02-14T10:58:34.660Z,8.50
2019-02-14T11:01:01.194Z,8.50
2019-02-14T11:03:27.639Z,8.50
2019-02-14T11:05:54.980Z,8.50
2019-02-14T11:08:21.641Z,8.50
2019-02-14T11:10:47.959Z,8.60
2019-02-14T11:13:14.542Z,8.70
2019-02-14T11:15:40.999Z,8.70
2019-02-14T11:18:07.777Z,8.80
2019-02-14T11:20:34.105Z,9.00
2019-02-14T11:23:00.714Z,9.20
2019-02-14T11:25:36.199Z,9.40
2019-02-14T11:28:02.649Z,9.70
2019-02-14T11:30:29.378Z,10.40
2019-02-14T11:32:55.692Z,11.30
2019-02-14T11:35:22.016Z,11.50
2019-02-14T11:37:48.374Z,11.90
2019-02-14T11:40:15.295Z,12.90
2019-02-14T11:42:41.616Z,13.50
2019-02-14T11:45:15.789Z,13.20
2019-02-14T11:47:43.078Z,13.90
2019-02-14T11:50:11.595Z,13.40
2019-02-14T11:52:38.020Z,13.60
2019-02-14T11:55:06.712Z,13.70
2019-02-14T11:57:33.263Z,15.10
2019-02-14T11:59:59.650Z,16.50
2019-02-14T12:02:26.353Z,16.40
2019-02-14T12:04:53.595Z,15.30
2019-02-14T12:07:20.264Z,15.10
2019-02-14T12:09:46.874Z,16.30
2019-02-14T12:12:13.470Z,16.90
2019-02-14T12:14:40.341Z,17.10
2019-02-14T12:17:09.142Z,17.00
2019-02-14T12:19:38.422Z,17.20
2019-02-14T12:22:04.719Z,18.30
2019-02-14T12:24:31.097Z,17.60
2019-02-14T12:26:57.728Z,18.20
2019-02-14T12:29:24.406Z,17.90
2019-02-14T12:31:50.767Z,18.00
2019-02-14T12:34:17.097Z,17.60
2019-02-14T12:36:43.585Z,19.10
2019-02-14T12:39:11.636Z,18.90
2019-02-14T12:41:38.244Z,18.60
2019-02-14T12:44:04.806Z,19.50
2019-02-14T12:46:31.449Z,20.20
2019-02-14T12:48:58.008Z,18.60
2019-02-14T12:51:26.247Z,18.90
2019-02-14T12:53:52.866Z,18.60
2019-02-14T12:56:19.173Z,19.70
2019-02-14T12:58:45.838Z,20.90
2019-02-14T13:01:12.444Z,20.60
2019-02-14T13:03:38.812Z,21.60
2019-02-14T13:06:05.149Z,22.30
2019-02-14T13:08:32.167Z,22.90
2019-02-14T13:10:58.695Z,21.20
2019-02-14T13:13:25.172Z,21.10
2019-02-14T13:15:53.011Z,21.90
2019-02-14T13:18:19.939Z,19.40
2019-02-14T13:20:46.284Z,21.20
2019-02-14T13:23:12.930Z,21.70
2019-02-14T13:25:39.360Z,21.40
2019-02-14T13:28:05.686Z,22.70
2019-02-14T13:30:32.097Z,23.10
2019-02-14T13:32:58.813Z,20.10
2019-02-14T13:35:25.163Z,19.10
2019-02-14T13:37:51.629Z,19.10
2019-02-14T13:40:17.988Z,20.70
2019-02-14T13:42:44.628Z,21.50
2019-02-14T13:45:20.697Z,22.50
2019-02-14T13:47:49.895Z,23.20
2019-02-14T13:50:16.492Z,22.70
2019-02-14T13:52:42.831Z,23.60
2019-02-14T13:55:09.746Z,22.60
2019-02-14T13:57:36.111Z,22.70
2019-02-14T14:00:08.467Z,22.80
2019-02-14T14:02:34.910Z,23.50
2019-02-14T14:05:01.357Z,23.00
2019-02-14T14:07:28.102Z,22.90
2019-02-14T14:09:54.939Z,23.10
2019-02-14T14:12:21.416Z,23.80
2019-02-14T14:14:47.778Z,22.00
2019-02-14T14:17:14.383Z,22.80
2019-02-14T14:19:41.136Z,22.00
2019-02-14T14:22:07.570Z,21.90
2019-02-14T14:24:33.913Z,20.90
2019-02-14T14:27:00.346Z,20.80
2019-02-14T14:29:26.943Z,21.10
2019-02-14T14:31:53.277Z,21.00
2019-02-14T14:34:19.694Z,21.30
2019-02-14T14:36:46.075Z,21.70
2019-02-14T14:39:12.607Z,21.90
2019-02-14T14:41:39.243Z,21.50
2019-02-14T14:44:07.929Z,21.70
2019-02-14T14:46:34.743Z,22.30
2019-02-14T14:49:01.101Z,22.20
2019-02-14T14:51:27.700Z,22.10
2019-02-14T14:53:54.072Z,20.50
2019-02-14T14:56:21.602Z,21.60
2019-02-14T14:58:48.196Z,22.30
2019-02-14T15:01:14.841Z,23.20
2019-02-14T15:03:41.468Z,22.90
2019-02-14T15:06:07.858Z,20.50
2019-02-14T15:08:35.200Z,18.90
2019-02-14T15:11:01.659Z,17.30
2019-02-14T15:13:28.141Z,16.20
2019-02-14T15:15:54.568Z,15.60
2019-02-14T15:18:20.937Z,14.50
2019-02-14T15:20:47.554Z,13.70
2019-02-14T15:23:13.906Z,13.10
2019-02-14T15:25:40.510Z,12.80
2019-02-14T15:28:07.099Z,12.40
2019-02-14T15:30:33.472Z,12.20
2019-02-14T15:33:00.067Z,12.00
2019-02-14T15:35:26.693Z,11.80
2019-02-14T15:37:53.021Z,11.60
2019-02-14T15:40:19.436Z,11.40
2019-02-14T15:42:45.765Z,11.30
2019-02-14T15:45:12.351Z,11.20
2019-02-14T15:47:38.724Z,11.10
2019-02-14T15:50:08.977Z,11.00
2019-02-14T15:52:35.463Z,10.90
2019-02-14T15:55:01.956Z,10.80
2019-02-14T15:57:28.406Z,10.80
2019-02-14T15:59:54.719Z,10.70
2019-02-14T16:02:21.117Z,10.50
2019-02-14T16:04:47.673Z,10.50
2019-02-14T16:07:15.343Z,10.40
2019-02-14T16:09:42.362Z,10.20
2019-02-14T16:12:09.010Z,10.10
2019-02-14T16:14:35.677Z,10.00
2019-02-14T16:17:02.096Z,10.00
2019-02-14T16:19:28.786Z,9.80
2019-02-14T16:21:56.148Z,9.80
2019-02-14T16:24:23.576Z,9.70
2019-02-14T16:26:49.910Z,9.60
2019-02-14T16:29:16.213Z,9.40
2019-02-14T16:31:42.914Z,9.40
2019-02-14T16:34:09.559Z,9.30
2019-02-14T16:36:35.934Z,9.10
2019-02-14T16:39:04.195Z,9.10
2019-02-14T16:41:32.740Z,9.00
2019-02-14T16:43:59.286Z,8.90
2019-02-14T16:46:26.676Z,8.80
2019-02-14T16:48:53.224Z,8.70
2019-02-14T16:51:19.804Z,8.60
2019-02-14T16:53:46.180Z,8.60
2019-02-14T16:56:12.515Z,8.50
2019-02-14T16:58:38.938Z,8.40
2019-02-14T17:01:05.382Z,8.40
2019-02-14T17:03:32.352Z,8.30
2019-02-14T17:05:58.940Z,8.20
2019-02-14T17:08:25.679Z,8.10
2019-02-14T17:10:52.362Z,8.10
2019-02-14T17:13:18.977Z,8.10
2019-02-14T17:15:45.314Z,8.00
2019-02-14T17:18:12.004Z,7.90
2019-02-14T17:20:38.321Z,7.90
2019-02-14T17:23:04.992Z,7.90
2019-02-14T17:25:31.722Z,7.80
2019-02-14T17:27:58.112Z,7.70
2019-02-14T17:30:24.714Z,7.70
2019-02-14T17:32:52.523Z,7.70
2019-02-14T17:35:18.881Z,7.60
2019-02-14T17:37:46.102Z,7.60
2019-02-14T17:40:12.784Z,7.50
2019-02-14T17:42:39.238Z,7.40
2019-02-14T17:45:08.510Z,7.30
2019-02-14T17:47:34.926Z,7.20
2019-02-14T17:50:01.256Z,7.10
2019-02-14T17:52:27.591Z,7.00
2019-02-14T17:54:54.243Z,7.00
2019-02-14T17:57:20.843Z,7.00
2019-02-14T17:59:47.451Z,6.90
2019-02-14T18:02:15.447Z,6.90
2019-02-14T18:04:42.061Z,7.00
2019-02-14T18:07:08.370Z,6.90
2019-02-14T18:09:34.703Z,6.90
2019-02-14T18:12:01.304Z,6.70
2019-02-14T18:14:27.841Z,6.70
2019-02-14T18:16:54.171Z,6.70
2019-02-14T18:19:20.798Z,6.60
2019-02-14T18:21:47.469Z,6.60
2019-02-14T18:24:14.172Z,6.50
2019-02-14T18:26:40.495Z,6.40
2019-02-14T18:29:06.812Z,6.40
2019-02-14T18:31:33.144Z,6.40
2019-02-14T18:33:59.502Z,6.30
2019-02-14T18:36:26.046Z,6.30
2019-02-14T18:38:52.863Z,6.20
2019-02-14T18:41:19.229Z,6.20
2019-02-14T18:43:45.657Z,6.10
2019-02-14T18:46:12.475Z,6.10
2019-02-14T18:48:38.799Z,6.00
2019-02-14T18:51:05.372Z,6.00
2019-02-14T18:53:31.729Z,5.90
2019-02-14T18:55:58.099Z,6.00
2019-02-14T18:58:26.649Z,5.90
2019-02-14T19:00:52.960Z,6.10
2019-02-14T19:03:19.382Z,6.10
2019-02-14T19:05:45.726Z,6.00
2019-02-14T19:08:12.359Z,6.00
2019-02-14T19:10:38.757Z,6.00
2019-02-14T19:13:05.352Z,6.00
2019-02-14T19:15:31.702Z,5.90
2019-02-14T19:17:58.401Z,5.80
2019-02-14T19:20:24.770Z,5.90
2019-02-14T19:22:51.119Z,5.90
2019-02-14T19:25:18.085Z,5.90
2019-02-14T19:27:44.666Z,5.90
2019-02-14T19:30:12.372Z,5.80
2019-02-14T19:32:39.019Z,5.80
2019-02-14T19:35:08.014Z,5.80
2019-02-14T19:37:35.567Z,5.70
2019-02-14T19:40:02.164Z,5.60
2019-02-14T19:42:28.826Z,5.50
2019-02-14T19:44:55.599Z,5.50
2019-02-14T19:47:22.168Z,5.50
2019-02-14T19:49:48.525Z,5.40
2019-02-14T19:52:14.884Z,5.50
2019-02-14T19:54:41.499Z,5.50
2019-02-14T19:57:08.123Z,5.60
2019-02-14T19:59:34.457Z,5.60
2019-02-14T20:02:01.104Z,5.50
2019-02-14T20:04:27.693Z,5.40
2019-02-14T20:06:54.154Z,5.30
2019-02-14T20:09:20.931Z,5.30
2019-02-14T20:11:47.286Z,5.20
2019-02-14T20:14:14.651Z,5.20
2019-02-14T20:16:41.272Z,5.20
2019-02-14T20:19:07.656Z,5.10
2019-02-14T20:21:34.226Z,5.00
2019-02-14T20:24:00.851Z,4.90
2019-02-14T20:26:27.290Z,4.90
2019-02-14T20:28:53.681Z,4.80
2019-02-14T20:31:20.309Z,4.80
2019-02-14T20:33:46.860Z,4.80
2019-02-14T20:36:13.222Z,4.80
2019-02-14T20:38:39.781Z,4.70
2019-02-14T20:41:06.485Z,4.70
2019-02-14T20:43:32.940Z,4.80
2019-02-14T20:45:59.442Z,4.70
2019-02-14T20:48:26.335Z,4.60
2019-02-14T20:50:52.819Z,4.60
2019-02-14T20:53:19.290Z,4.50
2019-02-14T20:55:45.687Z,4.50
2019-02-14T20:58:12.475Z,4.50
2019-02-14T21:00:39.280Z,4.50
2019-02-14T21:03:05.958Z,4.50
2019-02-14T21:05:32.616Z,4.50
2019-02-14T21:08:00.263Z,4.40
2019-02-14T21:10:26.632Z,4.40
2019-02-14T21:12:53.297Z,4.30
2019-02-14T21:15:19.598Z,4.30
2019-02-14T21:17:46.201Z,4.30
2019-02-14T21:20:14.682Z,4.20
2019-02-14T21:22:41.123Z,4.10
2019-02-14T21:25:08.168Z,4.20
2019-02-14T21:27:35.255Z,4.10
2019-02-14T21:30:03.084Z,4.20
2019-02-14T21:32:29.912Z,4.10
2019-02-14T21:34:56.247Z,4.10
2019-02-14T21:37:23.784Z,4.00
2019-02-14T21:39:50.268Z,3.90
2019-02-14T21:42:20.560Z,3.90
2019-02-14T21:44:44.912Z,3.80
2019-02-14T21:47:11.523Z,3.80
2019-02-14T21:49:38.039Z,3.80
2019-02-14T21:52:04.356Z,3.80
2019-02-14T21:54:31.771Z,3.80
2019-02-14T21:56:58.330Z,3.80
2019-02-14T21:59:24.890Z,3.80
2019-02-14T22:01:51.329Z,3.70
2019-02-14T22:04:17.809Z,3.60
2019-02-14T22:06:44.246Z,3.60
2019-02-14T22:09:10.623Z,3.60
2019-02-14T22:11:37.114Z,3.60
2019-02-14T22:14:03.633Z,3.80
2019-02-14T22:16:29.983Z,3.90
2019-02-14T22:18:56.639Z,3.90
2019-02-14T22:21:23.271Z,3.80
2019-02-14T22:23:49.573Z,3.70
2019-02-14T22:26:16.887Z,3.60
2019-02-14T22:28:43.249Z,3.50
2019-02-14T22:31:09.822Z,3.30
2019-02-14T22:33:36.420Z,3.30
2019-02-14T22:36:03.077Z,3.30
2019-02-14T22:38:29.683Z,3.30
2019-02-14T22:40:57.006Z,3.10
2019-02-14T22:43:23.405Z,3.20
2019-02-14T22:45:50.010Z,3.10
2019-02-14T22:48:16.593Z,3.10
2019-02-14T22:50:42.996Z,3.10
2019-02-14T22:53:09.554Z,3.20
2019-02-14T22:55:36.157Z,3.20
2019-02-14T22:58:02.467Z,3.20
2019-02-14T23:00:36.877Z,3.20
2019-02-14T23:03:05.666Z,3.20
2019-02-14T23:05:32.346Z,3.10
2019-02-14T23:07:58.668Z,3.10
2019-02-14T23:10:24.993Z,3.10
2019-02-14T23:12:55.680Z,3.00
2019-02-14T23:15:19.537Z,3.00
2019-02-14T23:17:45.885Z,3.00
2019-02-14T23:20:12.217Z,3.00
2019-02-14T23:22:38.581Z,2.90
2019-02-14T23:25:05.174Z,2.90
2019-02-14T23:27:31.503Z,2.80
2019-02-14T23:29:58.099Z,2.80
2019-02-14T23:32:24.675Z,2.80
2019-02-14T23:34:50.986Z,2.80
2019-02-14T23:37:17.404Z,2.80
2019-02-14T23:39:44.018Z,2.80
2019-02-14T23:42:10.349Z,2.80
2019-02-14T23:44:36.921Z,2.70
2019-02-14T23:47:03.508Z,2.70
2019-02-14T23:49:30.162Z,2.70
2019-02-14T23:51:56.486Z,2.60
2019-02-14T23:54:23.087Z,2.60
2019-02-14T23:56:49.662Z,2.60
2019-02-14T23:59:16.296Z,2.60
